sensor_id;sensor_type;location;lat;lon;timestamp;P1;durP1;ratioP1;P2;durP2;ratioP2
21289;SDS011;10804;48.988;2.408;2023-02-08T00:01:55;0.20;;;0.20;;
21289;SDS011;10804;48.988;2.408;2023-02-08T00:04:22;0.10;;;0.10;;
21289;SDS011;10804;48.988;2.408;2023-02-08T00:06:51;0.17;;;0.17;;
21289;SDS011;10804;48.988;2.408;2023-02-08T00:09:18;0.20;;;0.20;;
21289;SDS011;10804;48.988;2.408;2023-02-08T00:11:45;0.20;;;0.20;;
21289;SDS011;10804;48.988;2.408;2023-02-08T00:14:13;0.10;;;0.10;;
21289;SDS011;10804;48.988;2.408;2023-02-08T00:16:40;0.20;;;0.20;;
21289;SDS011;10804;48.988;2.408;2023-02-08T00:19:07;0.20;;;0.20;;
21289;SDS011;10804;48.988;2.408;2023-02-08T00:21:35;0.20;;;0.20;;
21289;SDS011;10804;48.988;2.408;2023-02-08T00:24:04;0.10;;;0.10;;
21289;SDS011;10804;48.988;2.408;2023-02-08T00:26:32;0.13;;;0.13;;
21289;SDS011;10804;48.988;2.408;2023-02-08T00:28:59;0.10;;;0.10;;
21289;SDS011;10804;48.988;2.408;2023-02-08T00:31:26;0.20;;;0.20;;
21289;SDS011;10804;48.988;2.408;2023-02-08T00:33:54;0.20;;;0.20;;
21289;SDS011;10804;48.988;2.408;2023-02-08T00:36:21;0.10;;;0.10;;
21289;SDS011;10804;48.988;2.408;2023-02-08T00:38:49;0.10;;;0.10;;
21289;SDS011;10804;48.988;2.408;2023-02-08T00:41:17;0.20;;;0.20;;
21289;SDS011;10804;48.988;2.408;2023-02-08T00:43:47;0.10;;;0.10;;
21289;SDS011;10804;48.988;2.408;2023-02-08T00:46:14;0.20;;;0.20;;
21289;SDS011;10804;48.988;2.408;2023-02-08T00:48:42;0.10;;;0.10;;
21289;SDS011;10804;48.988;2.408;2023-02-08T00:51:12;0.10;;;0.10;;
21289;SDS011;10804;48.988;2.408;2023-02-08T00:53:40;0.20;;;0.20;;
21289;SDS011;10804;48.988;2.408;2023-02-08T00:56:10;0.20;;;0.20;;
21289;SDS011;10804;48.988;2.408;2023-02-08T00:58:39;0.10;;;0.10;;
21289;SDS011;10804;48.988;2.408;2023-02-08T01:01:07;0.10;;;0.10;;
21289;SDS011;10804;48.988;2.408;2023-02-08T01:03:36;0.10;;;0.10;;
21289;SDS011;10804;48.988;2.408;2023-02-08T01:06:05;0.13;;;0.13;;
21289;SDS011;10804;48.988;2.408;2023-02-08T01:08:35;0.20;;;0.20;;
21289;SDS011;10804;48.988;2.408;2023-02-08T01:11:03;0.20;;;0.20;;
21289;SDS011;10804;48.988;2.408;2023-02-08T01:13:31;0.20;;;0.20;;
21289;SDS011;10804;48.988;2.408;2023-02-08T01:16:08;0.10;;;0.10;;
21289;SDS011;10804;48.988;2.408;2023-02-08T01:18:37;0.20;;;0.20;;
21289;SDS011;10804;48.988;2.408;2023-02-08T01:21:07;0.20;;;0.20;;
21289;SDS011;10804;48.988;2.408;2023-02-08T01:23:36;0.10;;;0.10;;
21289;SDS011;10804;48.988;2.408;2023-02-08T01:26:03;0.20;;;0.20;;
21289;SDS011;10804;48.988;2.408;2023-02-08T01:28:31;0.10;;;0.10;;
21289;SDS011;10804;48.988;2.408;2023-02-08T01:30:59;0.13;;;0.13;;
21289;SDS011;10804;48.988;2.408;2023-02-08T01:33:33;0.20;;;0.20;;
21289;SDS011;10804;48.988;2.408;2023-02-08T01:36:00;0.20;;;0.20;;
21289;SDS011;10804;48.988;2.408;2023-02-08T01:38:28;0.10;;;0.10;;
21289;SDS011;10804;48.988;2.408;2023-02-08T01:40:57;0.20;;;0.20;;
21289;SDS011;10804;48.988;2.408;2023-02-08T01:43:26;0.20;;;0.20;;
21289;SDS011;10804;48.988;2.408;2023-02-08T01:45:56;0.20;;;0.20;;
21289;SDS011;10804;48.988;2.408;2023-02-08T01:48:25;0.20;;;0.20;;
21289;SDS011;10804;48.988;2.408;2023-02-08T01:50:58;0.10;;;0.10;;
21289;SDS011;10804;48.988;2.408;2023-02-08T01:53:29;0.20;;;0.20;;
21289;SDS011;10804;48.988;2.408;2023-02-08T01:56:02;0.20;;;0.20;;
21289;SDS011;10804;48.988;2.408;2023-02-08T01:58:33;0.20;;;0.20;;
21289;SDS011;10804;48.988;2.408;2023-02-08T02:01:04;0.20;;;0.20;;
21289;SDS011;10804;48.988;2.408;2023-02-08T02:03:33;0.13;;;0.13;;
21289;SDS011;10804;48.988;2.408;2023-02-08T02:06:02;0.20;;;0.20;;
21289;SDS011;10804;48.988;2.408;2023-02-08T02:08:37;0.20;;;0.20;;
21289;SDS011;10804;48.988;2.408;2023-02-08T02:11:07;0.10;;;0.10;;
21289;SDS011;10804;48.988;2.408;2023-02-08T02:13:35;0.20;;;0.20;;
21289;SDS011;10804;48.988;2.408;2023-02-08T02:16:03;0.20;;;0.20;;
21289;SDS011;10804;48.988;2.408;2023-02-08T02:18:31;0.10;;;0.10;;
21289;SDS011;10804;48.988;2.408;2023-02-08T02:21:08;0.20;;;0.20;;
21289;SDS011;10804;48.988;2.408;2023-02-08T02:23:58;0.20;;;0.20;;
21289;SDS011;10804;48.988;2.408;2023-02-08T02:27:21;0.20;;;0.20;;
21289;SDS011;10804;48.988;2.408;2023-02-08T02:36:02;0.20;;;0.20;;
21289;SDS011;10804;48.988;2.408;2023-02-08T02:38:43;0.20;;;0.20;;
21289;SDS011;10804;48.988;2.408;2023-02-08T02:41:29;0.20;;;0.20;;
21289;SDS011;10804;48.988;2.408;2023-02-08T02:44:23;0.20;;;0.20;;
21289;SDS011;10804;48.988;2.408;2023-02-08T02:47:01;0.20;;;0.20;;
21289;SDS011;10804;48.988;2.408;2023-02-08T02:49:36;0.20;;;0.20;;
21289;SDS011;10804;48.988;2.408;2023-02-08T02:52:09;0.20;;;0.20;;
21289;SDS011;10804;48.988;2.408;2023-02-08T02:54:40;0.13;;;0.13;;
21289;SDS011;10804;48.988;2.408;2023-02-08T02:57:13;0.10;;;0.10;;
21289;SDS011;10804;48.988;2.408;2023-02-08T02:59:44;0.10;;;0.10;;
21289;SDS011;10804;48.988;2.408;2023-02-08T03:02:12;0.20;;;0.20;;
21289;SDS011;10804;48.988;2.408;2023-02-08T03:04:48;0.20;;;0.20;;
21289;SDS011;10804;48.988;2.408;2023-02-08T03:07:21;0.20;;;0.20;;
21289;SDS011;10804;48.988;2.408;2023-02-08T03:10:01;0.13;;;0.13;;
21289;SDS011;10804;48.988;2.408;2023-02-08T03:12:43;0.20;;;0.20;;
21289;SDS011;10804;48.988;2.408;2023-02-08T03:15:20;0.20;;;0.20;;
21289;SDS011;10804;48.988;2.408;2023-02-08T03:17:58;0.20;;;0.20;;
21289;SDS011;10804;48.988;2.408;2023-02-08T03:20:36;0.20;;;0.20;;
21289;SDS011;10804;48.988;2.408;2023-02-08T03:23:07;0.20;;;0.20;;
21289;SDS011;10804;48.988;2.408;2023-02-08T03:25:42;0.20;;;0.20;;
21289;SDS011;10804;48.988;2.408;2023-02-08T03:28:17;0.20;;;0.20;;
21289;SDS011;10804;48.988;2.408;2023-02-08T03:30:51;0.20;;;0.20;;
21289;SDS011;10804;48.988;2.408;2023-02-08T03:33:25;0.20;;;0.20;;
21289;SDS011;10804;48.988;2.408;2023-02-08T03:36:01;0.20;;;0.20;;
21289;SDS011;10804;48.988;2.408;2023-02-08T03:38:32;0.20;;;0.20;;
21289;SDS011;10804;48.988;2.408;2023-02-08T03:41:03;0.20;;;0.20;;
21289;SDS011;10804;48.988;2.408;2023-02-08T03:43:35;0.20;;;0.20;;
21289;SDS011;10804;48.988;2.408;2023-02-08T03:46:07;0.20;;;0.20;;
21289;SDS011;10804;48.988;2.408;2023-02-08T03:48:40;0.20;;;0.20;;
21289;SDS011;10804;48.988;2.408;2023-02-08T03:51:15;0.20;;;0.20;;
21289;SDS011;10804;48.988;2.408;2023-02-08T03:53:43;0.20;;;0.20;;
21289;SDS011;10804;48.988;2.408;2023-02-08T03:56:15;0.20;;;0.20;;
21289;SDS011;10804;48.988;2.408;2023-02-08T03:58:47;0.20;;;0.20;;
21289;SDS011;10804;48.988;2.408;2023-02-08T04:01:22;0.20;;;0.20;;
21289;SDS011;10804;48.988;2.408;2023-02-08T04:03:53;0.20;;;0.20;;
21289;SDS011;10804;48.988;2.408;2023-02-08T04:06:24;0.20;;;0.20;;
21289;SDS011;10804;48.988;2.408;2023-02-08T04:08:52;0.20;;;0.20;;
21289;SDS011;10804;48.988;2.408;2023-02-08T04:11:20;0.20;;;0.20;;
21289;SDS011;10804;48.988;2.408;2023-02-08T04:13:48;0.20;;;0.20;;
21289;SDS011;10804;48.988;2.408;2023-02-08T04:16:15;0.20;;;0.20;;
21289;SDS011;10804;48.988;2.408;2023-02-08T04:18:42;0.20;;;0.20;;
21289;SDS011;10804;48.988;2.408;2023-02-08T04:21:09;0.13;;;0.13;;
21289;SDS011;10804;48.988;2.408;2023-02-08T04:23:38;0.20;;;0.20;;
21289;SDS011;10804;48.988;2.408;2023-02-08T04:26:05;0.20;;;0.20;;
21289;SDS011;10804;48.988;2.408;2023-02-08T04:28:33;0.20;;;0.20;;
21289;SDS011;10804;48.988;2.408;2023-02-08T04:31:01;0.20;;;0.20;;
21289;SDS011;10804;48.988;2.408;2023-02-08T04:33:28;0.20;;;0.20;;
21289;SDS011;10804;48.988;2.408;2023-02-08T04:35:55;0.20;;;0.20;;
21289;SDS011;10804;48.988;2.408;2023-02-08T04:38:23;0.20;;;0.20;;
21289;SDS011;10804;48.988;2.408;2023-02-08T04:40:52;0.20;;;0.20;;
21289;SDS011;10804;48.988;2.408;2023-02-08T04:43:19;0.20;;;0.20;;
21289;SDS011;10804;48.988;2.408;2023-02-08T04:45:48;0.20;;;0.20;;
21289;SDS011;10804;48.988;2.408;2023-02-08T04:48:16;0.20;;;0.20;;
21289;SDS011;10804;48.988;2.408;2023-02-08T04:50:43;0.20;;;0.20;;
21289;SDS011;10804;48.988;2.408;2023-02-08T04:53:12;0.20;;;0.20;;
21289;SDS011;10804;48.988;2.408;2023-02-08T04:55:39;0.20;;;0.20;;
21289;SDS011;10804;48.988;2.408;2023-02-08T04:58:08;0.20;;;0.20;;
21289;SDS011;10804;48.988;2.408;2023-02-08T05:00:35;0.20;;;0.20;;
21289;SDS011;10804;48.988;2.408;2023-02-08T05:03:02;0.20;;;0.20;;
21289;SDS011;10804;48.988;2.408;2023-02-08T05:05:30;0.20;;;0.20;;
21289;SDS011;10804;48.988;2.408;2023-02-08T05:07:57;0.20;;;0.20;;
21289;SDS011;10804;48.988;2.408;2023-02-08T05:10:25;0.20;;;0.20;;
21289;SDS011;10804;48.988;2.408;2023-02-08T05:12:52;0.20;;;0.20;;
21289;SDS011;10804;48.988;2.408;2023-02-08T05:15:21;0.20;;;0.20;;
21289;SDS011;10804;48.988;2.408;2023-02-08T05:17:48;0.20;;;0.20;;
21289;SDS011;10804;48.988;2.408;2023-02-08T05:20:16;0.20;;;0.20;;
21289;SDS011;10804;48.988;2.408;2023-02-08T05:22:43;0.20;;;0.20;;
21289;SDS011;10804;48.988;2.408;2023-02-08T05:25:10;0.20;;;0.20;;
21289;SDS011;10804;48.988;2.408;2023-02-08T05:27:38;0.20;;;0.20;;
21289;SDS011;10804;48.988;2.408;2023-02-08T05:30:05;0.20;;;0.20;;
21289;SDS011;10804;48.988;2.408;2023-02-08T05:32:34;0.20;;;0.20;;
21289;SDS011;10804;48.988;2.408;2023-02-08T05:35:02;0.10;;;0.10;;
21289;SDS011;10804;48.988;2.408;2023-02-08T05:37:29;0.10;;;0.10;;
21289;SDS011;10804;48.988;2.408;2023-02-08T05:39:56;0.20;;;0.20;;
21289;SDS011;10804;48.988;2.408;2023-02-08T05:42:24;0.20;;;0.20;;
21289;SDS011;10804;48.988;2.408;2023-02-08T05:44:51;0.20;;;0.20;;
21289;SDS011;10804;48.988;2.408;2023-02-08T05:47:19;0.20;;;0.20;;
21289;SDS011;10804;48.988;2.408;2023-02-08T05:49:48;0.20;;;0.20;;
21289;SDS011;10804;48.988;2.408;2023-02-08T05:52:15;0.20;;;0.20;;
21289;SDS011;10804;48.988;2.408;2023-02-08T05:54:42;0.20;;;0.20;;
21289;SDS011;10804;48.988;2.408;2023-02-08T05:57:10;0.20;;;0.20;;
21289;SDS011;10804;48.988;2.408;2023-02-08T05:59:37;0.20;;;0.20;;
21289;SDS011;10804;48.988;2.408;2023-02-08T06:02:04;0.20;;;0.20;;
21289;SDS011;10804;48.988;2.408;2023-02-08T06:04:32;0.20;;;0.20;;
21289;SDS011;10804;48.988;2.408;2023-02-08T06:07:00;0.20;;;0.20;;
21289;SDS011;10804;48.988;2.408;2023-02-08T06:09:27;0.20;;;0.20;;
21289;SDS011;10804;48.988;2.408;2023-02-08T06:11:55;0.20;;;0.20;;
21289;SDS011;10804;48.988;2.408;2023-02-08T06:14:22;0.20;;;0.20;;
21289;SDS011;10804;48.988;2.408;2023-02-08T06:16:49;0.20;;;0.20;;
21289;SDS011;10804;48.988;2.408;2023-02-08T06:19:17;0.20;;;0.20;;
21289;SDS011;10804;48.988;2.408;2023-02-08T06:21:44;0.20;;;0.20;;
21289;SDS011;10804;48.988;2.408;2023-02-08T06:24:13;0.20;;;0.20;;
21289;SDS011;10804;48.988;2.408;2023-02-08T06:26:41;0.20;;;0.20;;
21289;SDS011;10804;48.988;2.408;2023-02-08T06:29:09;0.20;;;0.20;;
21289;SDS011;10804;48.988;2.408;2023-02-08T06:31:36;0.20;;;0.20;;
21289;SDS011;10804;48.988;2.408;2023-02-08T06:34:03;0.20;;;0.20;;
21289;SDS011;10804;48.988;2.408;2023-02-08T06:36:31;0.20;;;0.20;;
21289;SDS011;10804;48.988;2.408;2023-02-08T06:38:58;0.20;;;0.20;;
21289;SDS011;10804;48.988;2.408;2023-02-08T06:41:27;0.20;;;0.20;;
21289;SDS011;10804;48.988;2.408;2023-02-08T06:43:54;0.20;;;0.20;;
21289;SDS011;10804;48.988;2.408;2023-02-08T06:46:24;0.20;;;0.20;;
21289;SDS011;10804;48.988;2.408;2023-02-08T06:48:51;0.20;;;0.20;;
21289;SDS011;10804;48.988;2.408;2023-02-08T06:51:18;0.20;;;0.20;;
21289;SDS011;10804;48.988;2.408;2023-02-08T06:53:46;0.20;;;0.20;;
21289;SDS011;10804;48.988;2.408;2023-02-08T06:56:14;0.20;;;0.20;;
21289;SDS011;10804;48.988;2.408;2023-02-08T06:58:42;0.20;;;0.20;;
21289;SDS011;10804;48.988;2.408;2023-02-08T07:01:10;0.20;;;0.20;;
21289;SDS011;10804;48.988;2.408;2023-02-08T07:03:38;0.20;;;0.20;;
21289;SDS011;10804;48.988;2.408;2023-02-08T07:06:06;0.20;;;0.20;;
21289;SDS011;10804;48.988;2.408;2023-02-08T07:08:38;0.20;;;0.20;;
21289;SDS011;10804;48.988;2.408;2023-02-08T07:11:06;0.20;;;0.20;;
21289;SDS011;10804;48.988;2.408;2023-02-08T07:13:34;0.20;;;0.20;;
21289;SDS011;10804;48.988;2.408;2023-02-08T07:16:03;0.20;;;0.20;;
21289;SDS011;10804;48.988;2.408;2023-02-08T07:18:32;0.20;;;0.20;;
21289;SDS011;10804;48.988;2.408;2023-02-08T07:21:00;0.20;;;0.20;;
21289;SDS011;10804;48.988;2.408;2023-02-08T07:23:27;0.20;;;0.20;;
21289;SDS011;10804;48.988;2.408;2023-02-08T07:25:55;0.20;;;0.20;;
21289;SDS011;10804;48.988;2.408;2023-02-08T07:28:24;0.20;;;0.20;;
21289;SDS011;10804;48.988;2.408;2023-02-08T07:30:51;0.20;;;0.20;;
21289;SDS011;10804;48.988;2.408;2023-02-08T07:33:20;0.20;;;0.20;;
21289;SDS011;10804;48.988;2.408;2023-02-08T07:35:48;0.20;;;0.20;;
21289;SDS011;10804;48.988;2.408;2023-02-08T07:38:16;0.20;;;0.20;;
21289;SDS011;10804;48.988;2.408;2023-02-08T07:40:43;0.20;;;0.20;;
21289;SDS011;10804;48.988;2.408;2023-02-08T07:43:10;0.20;;;0.20;;
21289;SDS011;10804;48.988;2.408;2023-02-08T07:45:47;0.20;;;0.20;;
21289;SDS011;10804;48.988;2.408;2023-02-08T07:48:14;0.20;;;0.20;;
21289;SDS011;10804;48.988;2.408;2023-02-08T07:50:43;0.20;;;0.20;;
21289;SDS011;10804;48.988;2.408;2023-02-08T07:53:10;0.20;;;0.20;;
21289;SDS011;10804;48.988;2.408;2023-02-08T07:55:37;0.20;;;0.20;;
21289;SDS011;10804;48.988;2.408;2023-02-08T07:58:05;0.20;;;0.20;;
21289;SDS011;10804;48.988;2.408;2023-02-08T08:00:32;0.20;;;0.20;;
21289;SDS011;10804;48.988;2.408;2023-02-08T08:02:59;0.20;;;0.20;;
21289;SDS011;10804;48.988;2.408;2023-02-08T08:05:26;0.20;;;0.20;;
21289;SDS011;10804;48.988;2.408;2023-02-08T08:07:55;0.20;;;0.20;;
21289;SDS011;10804;48.988;2.408;2023-02-08T08:10:22;0.20;;;0.20;;
21289;SDS011;10804;48.988;2.408;2023-02-08T08:12:50;0.20;;;0.20;;
21289;SDS011;10804;48.988;2.408;2023-02-08T08:15:17;0.20;;;0.20;;
21289;SDS011;10804;48.988;2.408;2023-02-08T08:17:44;0.20;;;0.20;;
21289;SDS011;10804;48.988;2.408;2023-02-08T08:20:12;0.20;;;0.20;;
21289;SDS011;10804;48.988;2.408;2023-02-08T08:22:39;0.20;;;0.20;;
21289;SDS011;10804;48.988;2.408;2023-02-08T08:25:07;0.20;;;0.20;;
21289;SDS011;10804;48.988;2.408;2023-02-08T08:27:35;0.20;;;0.20;;
21289;SDS011;10804;48.988;2.408;2023-02-08T08:30:03;0.20;;;0.20;;
21289;SDS011;10804;48.988;2.408;2023-02-08T08:32:32;0.20;;;0.20;;
21289;SDS011;10804;48.988;2.408;2023-02-08T08:34:59;0.20;;;0.20;;
21289;SDS011;10804;48.988;2.408;2023-02-08T08:37:26;0.20;;;0.20;;
21289;SDS011;10804;48.988;2.408;2023-02-08T08:39:54;0.20;;;0.20;;
21289;SDS011;10804;48.988;2.408;2023-02-08T08:42:22;0.20;;;0.20;;
21289;SDS011;10804;48.988;2.408;2023-02-08T08:44:51;0.20;;;0.20;;
21289;SDS011;10804;48.988;2.408;2023-02-08T08:47:18;0.20;;;0.20;;
21289;SDS011;10804;48.988;2.408;2023-02-08T08:49:46;0.20;;;0.20;;
21289;SDS011;10804;48.988;2.408;2023-02-08T08:52:15;0.20;;;0.20;;
21289;SDS011;10804;48.988;2.408;2023-02-08T08:54:42;0.20;;;0.20;;
21289;SDS011;10804;48.988;2.408;2023-02-08T08:57:10;0.20;;;0.20;;
21289;SDS011;10804;48.988;2.408;2023-02-08T08:59:38;0.20;;;0.20;;
21289;SDS011;10804;48.988;2.408;2023-02-08T09:02:06;0.20;;;0.20;;
21289;SDS011;10804;48.988;2.408;2023-02-08T09:04:33;0.20;;;0.20;;
21289;SDS011;10804;48.988;2.408;2023-02-08T09:07:00;0.20;;;0.20;;
21289;SDS011;10804;48.988;2.408;2023-02-08T09:09:27;0.20;;;0.20;;
21289;SDS011;10804;48.988;2.408;2023-02-08T09:11:55;0.20;;;0.20;;
21289;SDS011;10804;48.988;2.408;2023-02-08T09:14:22;0.20;;;0.20;;
21289;SDS011;10804;48.988;2.408;2023-02-08T09:16:51;0.20;;;0.20;;
21289;SDS011;10804;48.988;2.408;2023-02-08T09:19:18;0.20;;;0.20;;
21289;SDS011;10804;48.988;2.408;2023-02-08T09:21:45;0.20;;;0.20;;
21289;SDS011;10804;48.988;2.408;2023-02-08T09:24:13;0.20;;;0.20;;
21289;SDS011;10804;48.988;2.408;2023-02-08T09:26:40;0.20;;;0.20;;
21289;SDS011;10804;48.988;2.408;2023-02-08T09:29:07;0.20;;;0.20;;
21289;SDS011;10804;48.988;2.408;2023-02-08T09:31:35;0.20;;;0.20;;
21289;SDS011;10804;48.988;2.408;2023-02-08T09:34:05;0.20;;;0.20;;
21289;SDS011;10804;48.988;2.408;2023-02-08T09:36:34;0.20;;;0.20;;
21289;SDS011;10804;48.988;2.408;2023-02-08T09:39:04;0.20;;;0.20;;
21289;SDS011;10804;48.988;2.408;2023-02-08T09:41:37;0.20;;;0.20;;
21289;SDS011;10804;48.988;2.408;2023-02-08T09:44:16;0.20;;;0.20;;
21289;SDS011;10804;48.988;2.408;2023-02-08T09:46:54;0.20;;;0.20;;
21289;SDS011;10804;48.988;2.408;2023-02-08T09:49:27;0.20;;;0.20;;
21289;SDS011;10804;48.988;2.408;2023-02-08T09:52:00;0.20;;;0.20;;
21289;SDS011;10804;48.988;2.408;2023-02-08T09:54:31;0.20;;;0.20;;
21289;SDS011;10804;48.988;2.408;2023-02-08T09:57:01;0.20;;;0.20;;
21289;SDS011;10804;48.988;2.408;2023-02-08T09:59:32;0.20;;;0.20;;
21289;SDS011;10804;48.988;2.408;2023-02-08T10:02:03;0.20;;;0.20;;
21289;SDS011;10804;48.988;2.408;2023-02-08T10:04:47;0.20;;;0.20;;
21289;SDS011;10804;48.988;2.408;2023-02-08T10:07:23;0.20;;;0.20;;
21289;SDS011;10804;48.988;2.408;2023-02-08T10:09:53;0.20;;;0.20;;
21289;SDS011;10804;48.988;2.408;2023-02-08T10:12:25;0.20;;;0.20;;
21289;SDS011;10804;48.988;2.408;2023-02-08T10:15:04;0.20;;;0.20;;
21289;SDS011;10804;48.988;2.408;2023-02-08T10:17:51;0.20;;;0.20;;
21289;SDS011;10804;48.988;2.408;2023-02-08T10:20:39;0.20;;;0.20;;
21289;SDS011;10804;48.988;2.408;2023-02-08T10:23:29;0.20;;;0.20;;
21289;SDS011;10804;48.988;2.408;2023-02-08T10:26:09;0.20;;;0.20;;
21289;SDS011;10804;48.988;2.408;2023-02-08T10:31:48;0.10;;;0.10;;
21289;SDS011;10804;48.988;2.408;2023-02-08T10:34:27;0.20;;;0.20;;
21289;SDS011;10804;48.988;2.408;2023-02-08T10:37:05;0.10;;;0.10;;
21289;SDS011;10804;48.988;2.408;2023-02-08T10:39:39;0.20;;;0.20;;
21289;SDS011;10804;48.988;2.408;2023-02-08T10:42:09;0.17;;;0.17;;
21289;SDS011;10804;48.988;2.408;2023-02-08T10:44:42;0.20;;;0.20;;
21289;SDS011;10804;48.988;2.408;2023-02-08T10:47:24;0.20;;;0.20;;
21289;SDS011;10804;48.988;2.408;2023-02-08T10:50:02;0.20;;;0.20;;
21289;SDS011;10804;48.988;2.408;2023-02-08T10:52:34;0.20;;;0.20;;
21289;SDS011;10804;48.988;2.408;2023-02-08T10:55:06;0.20;;;0.20;;
21289;SDS011;10804;48.988;2.408;2023-02-08T10:57:38;0.20;;;0.20;;
21289;SDS011;10804;48.988;2.408;2023-02-08T11:00:17;0.20;;;0.20;;
21289;SDS011;10804;48.988;2.408;2023-02-08T11:02:46;0.20;;;0.20;;
21289;SDS011;10804;48.988;2.408;2023-02-08T11:05:17;0.20;;;0.20;;
21289;SDS011;10804;48.988;2.408;2023-02-08T11:07:53;0.10;;;0.10;;
21289;SDS011;10804;48.988;2.408;2023-02-08T11:10:31;0.20;;;0.20;;
21289;SDS011;10804;48.988;2.408;2023-02-08T11:12:59;0.20;;;0.20;;
21289;SDS011;10804;48.988;2.408;2023-02-08T11:15:32;0.20;;;0.20;;
21289;SDS011;10804;48.988;2.408;2023-02-08T11:18:04;0.20;;;0.20;;
21289;SDS011;10804;48.988;2.408;2023-02-08T11:20:33;0.20;;;0.20;;
21289;SDS011;10804;48.988;2.408;2023-02-08T11:23:16;0.10;;;0.10;;
21289;SDS011;10804;48.988;2.408;2023-02-08T11:25:47;0.20;;;0.20;;
21289;SDS011;10804;48.988;2.408;2023-02-08T11:28:21;0.10;;;0.10;;
21289;SDS011;10804;48.988;2.408;2023-02-08T11:30:55;0.10;;;0.10;;
21289;SDS011;10804;48.988;2.408;2023-02-08T11:33:27;0.10;;;0.10;;
21289;SDS011;10804;48.988;2.408;2023-02-08T11:36:04;0.10;;;0.10;;
21289;SDS011;10804;48.988;2.408;2023-02-08T11:38:37;0.20;;;0.20;;
21289;SDS011;10804;48.988;2.408;2023-02-08T11:41:13;0.10;;;0.10;;
21289;SDS011;10804;48.988;2.408;2023-02-08T11:43:48;0.10;;;0.10;;
21289;SDS011;10804;48.988;2.408;2023-02-08T11:46:21;0.10;;;0.10;;
21289;SDS011;10804;48.988;2.408;2023-02-08T11:48:50;0.10;;;0.10;;
21289;SDS011;10804;48.988;2.408;2023-02-08T11:51:24;0.10;;;0.10;;
21289;SDS011;10804;48.988;2.408;2023-02-08T11:53:55;0.10;;;0.10;;
21289;SDS011;10804;48.988;2.408;2023-02-08T11:56:26;0.10;;;0.10;;
21289;SDS011;10804;48.988;2.408;2023-02-08T11:58:58;0.10;;;0.10;;
21289;SDS011;10804;48.988;2.408;2023-02-08T12:01:28;0.10;;;0.10;;
21289;SDS011;10804;48.988;2.408;2023-02-08T12:03:58;0.10;;;0.10;;
21289;SDS011;10804;48.988;2.408;2023-02-08T12:09:20;0.10;;;0.10;;
21289;SDS011;10804;48.988;2.408;2023-02-08T12:12:01;0.10;;;0.10;;
21289;SDS011;10804;48.988;2.408;2023-02-08T12:14:45;0.10;;;0.10;;
21289;SDS011;10804;48.988;2.408;2023-02-08T12:17:29;0.10;;;0.10;;
21289;SDS011;10804;48.988;2.408;2023-02-08T12:20:29;0.10;;;0.10;;
21289;SDS011;10804;48.988;2.408;2023-02-08T12:23:03;0.10;;;0.10;;
21289;SDS011;10804;48.988;2.408;2023-02-08T12:25:46;0.10;;;0.10;;
21289;SDS011;10804;48.988;2.408;2023-02-08T12:28:20;0.10;;;0.10;;
21289;SDS011;10804;48.988;2.408;2023-02-08T12:30:56;0.10;;;0.10;;
21289;SDS011;10804;48.988;2.408;2023-02-08T12:33:43;0.10;;;0.10;;
21289;SDS011;10804;48.988;2.408;2023-02-08T12:36:26;0.10;;;0.10;;
21289;SDS011;10804;48.988;2.408;2023-02-08T12:39:07;0.10;;;0.10;;
21289;SDS011;10804;48.988;2.408;2023-02-08T12:42:17;0.10;;;0.10;;
21289;SDS011;10804;48.988;2.408;2023-02-08T12:44:58;0.10;;;0.10;;
21289;SDS011;10804;48.988;2.408;2023-02-08T12:47:38;0.10;;;0.10;;
21289;SDS011;10804;48.988;2.408;2023-02-08T12:50:20;0.10;;;0.10;;
21289;SDS011;10804;48.988;2.408;2023-02-08T12:52:53;0.10;;;0.10;;
21289;SDS011;10804;48.988;2.408;2023-02-08T12:55:25;0.10;;;0.10;;
21289;SDS011;10804;48.988;2.408;2023-02-08T12:57:58;0.10;;;0.10;;
21289;SDS011;10804;48.988;2.408;2023-02-08T13:00:45;0.10;;;0.10;;
21289;SDS011;10804;48.988;2.408;2023-02-08T13:03:19;0.00;;;0.00;;
21289;SDS011;10804;48.988;2.408;2023-02-08T13:05:56;0.10;;;0.10;;
21289;SDS011;10804;48.988;2.408;2023-02-08T13:08:25;0.10;;;0.10;;
21289;SDS011;10804;48.988;2.408;2023-02-08T13:10:57;0.10;;;0.10;;
21289;SDS011;10804;48.988;2.408;2023-02-08T13:13:32;0.10;;;0.10;;
21289;SDS011;10804;48.988;2.408;2023-02-08T13:16:04;0.10;;;0.10;;
21289;SDS011;10804;48.988;2.408;2023-02-08T13:18:36;0.10;;;0.10;;
21289;SDS011;10804;48.988;2.408;2023-02-08T13:21:10;0.08;;;0.08;;
21289;SDS011;10804;48.988;2.408;2023-02-08T13:23:41;0.10;;;0.10;;
21289;SDS011;10804;48.988;2.408;2023-02-08T13:26:11;0.00;;;0.00;;
21289;SDS011;10804;48.988;2.408;2023-02-08T13:28:45;0.10;;;0.10;;
21289;SDS011;10804;48.988;2.408;2023-02-08T13:31:15;0.10;;;0.10;;
21289;SDS011;10804;48.988;2.408;2023-02-08T13:33:48;0.10;;;0.10;;
21289;SDS011;10804;48.988;2.408;2023-02-08T13:36:18;0.05;;;0.05;;
21289;SDS011;10804;48.988;2.408;2023-02-08T13:38:49;0.10;;;0.10;;
21289;SDS011;10804;48.988;2.408;2023-02-08T13:41:17;0.10;;;0.10;;
21289;SDS011;10804;48.988;2.408;2023-02-08T13:43:49;0.10;;;0.10;;
21289;SDS011;10804;48.988;2.408;2023-02-08T13:46:19;0.10;;;0.10;;
21289;SDS011;10804;48.988;2.408;2023-02-08T13:48:50;0.05;;;0.05;;
21289;SDS011;10804;48.988;2.408;2023-02-08T13:54:20;0.10;;;0.10;;
21289;SDS011;10804;48.988;2.408;2023-02-08T13:56:48;0.10;;;0.10;;
21289;SDS011;10804;48.988;2.408;2023-02-08T14:02:20;0.10;;;0.10;;
21289;SDS011;10804;48.988;2.408;2023-02-08T14:04:52;0.05;;;0.05;;
21289;SDS011;10804;48.988;2.408;2023-02-08T14:07:22;0.10;;;0.10;;
21289;SDS011;10804;48.988;2.408;2023-02-08T14:10:02;0.10;;;0.10;;
21289;SDS011;10804;48.988;2.408;2023-02-08T14:12:35;0.10;;;0.10;;
21289;SDS011;10804;48.988;2.408;2023-02-08T14:15:15;0.10;;;0.10;;
21289;SDS011;10804;48.988;2.408;2023-02-08T14:17:53;0.10;;;0.10;;
21289;SDS011;10804;48.988;2.408;2023-02-08T14:20:25;0.10;;;0.10;;
21289;SDS011;10804;48.988;2.408;2023-02-08T14:23:00;0.10;;;0.10;;
21289;SDS011;10804;48.988;2.408;2023-02-08T14:25:36;0.10;;;0.10;;
21289;SDS011;10804;48.988;2.408;2023-02-08T14:28:15;0.10;;;0.10;;
21289;SDS011;10804;48.988;2.408;2023-02-08T14:30:52;0.10;;;0.10;;
21289;SDS011;10804;48.988;2.408;2023-02-08T14:33:22;0.00;;;0.00;;
21289;SDS011;10804;48.988;2.408;2023-02-08T14:35:53;0.10;;;0.10;;
21289;SDS011;10804;48.988;2.408;2023-02-08T14:50:32;0.10;;;0.10;;
21289;SDS011;10804;48.988;2.408;2023-02-08T14:53:05;0.10;;;0.10;;
21289;SDS011;10804;48.988;2.408;2023-02-08T14:55:44;0.00;;;0.00;;
21289;SDS011;10804;48.988;2.408;2023-02-08T14:58:23;0.10;;;0.10;;
21289;SDS011;10804;48.988;2.408;2023-02-08T15:00:54;0.00;;;0.00;;
21289;SDS011;10804;48.988;2.408;2023-02-08T15:03:25;0.00;;;0.00;;
21289;SDS011;10804;48.988;2.408;2023-02-08T15:06:01;0.10;;;0.10;;
21289;SDS011;10804;48.988;2.408;2023-02-08T15:08:38;0.10;;;0.10;;
21289;SDS011;10804;48.988;2.408;2023-02-08T15:11:14;0.03;;;0.03;;
21289;SDS011;10804;48.988;2.408;2023-02-08T15:13:47;0.00;;;0.00;;
21289;SDS011;10804;48.988;2.408;2023-02-08T15:16:15;0.10;;;0.10;;
21289;SDS011;10804;48.988;2.408;2023-02-08T15:18:44;0.10;;;0.10;;
21289;SDS011;10804;48.988;2.408;2023-02-08T15:21:15;0.10;;;0.10;;
21289;SDS011;10804;48.988;2.408;2023-02-08T15:23:56;0.10;;;0.10;;
21289;SDS011;10804;48.988;2.408;2023-02-08T15:26:24;0.10;;;0.10;;
21289;SDS011;10804;48.988;2.408;2023-02-08T15:28:51;0.10;;;0.10;;
21289;SDS011;10804;48.988;2.408;2023-02-08T15:31:20;0.10;;;0.10;;
21289;SDS011;10804;48.988;2.408;2023-02-08T15:33:50;0.10;;;0.10;;
21289;SDS011;10804;48.988;2.408;2023-02-08T15:36:21;0.10;;;0.10;;
21289;SDS011;10804;48.988;2.408;2023-02-08T15:38:54;0.10;;;0.10;;
21289;SDS011;10804;48.988;2.408;2023-02-08T15:41:24;0.10;;;0.10;;
21289;SDS011;10804;48.988;2.408;2023-02-08T15:44:00;0.10;;;0.10;;